Time;durP1;ratioP1;P1;durP2;ratioP2;P2;SDS_P1;SDS_P2;PMS_P1;PMS_P2;Temp;Humidity;BMP_temperature;BMP_pressure;BME280_temperature;BME280_humidity;BME280_pressure;Samples;Min_cycle;Max_cycle;Signal;HPM_P1;HPM_P2
2023/01/15 00:02:32;;;;;;;1.70;1.20;;;11.60;57.20;;;7.17;70.68;94789.91;4933146;28;20505;-53
2023/01/15 00:05:01;;;;;;;2.10;1.20;;;11.60;56.90;;;7.23;72.12;94780.13;4950910;28;20023;-56
2023/01/15 00:07:35;;;;;;;3.13;1.60;;;11.70;57.10;;;7.26;71.76;94779.59;4951689;28;20030;-51
2023/01/15 00:10:01;;;;;;;2.90;1.55;;;11.70;57.00;;;7.29;71.68;94768.47;4952582;28;20030;-51
2023/01/15 00:12:33;;;;;;;2.05;1.13;;;11.70;56.90;;;7.30;70.77;94774.56;4952855;28;20035;-54
2023/01/15 00:15:06;;;;;;;1.50;1.10;;;11.80;56.80;;;7.32;71.93;94767.94;4950088;28;20466;-55
2023/01/15 00:17:34;;;;;;;;;;;11.80;56.90;;;7.34;71.30;94765.84;4935975;28;20077;-52
2023/01/15 00:20:00;;;;;;;2.70;1.15;;;11.80;56.80;;;7.37;71.86;94760.03;4932873;28;20001;-54
2023/01/15 00:22:28;;;;;;;2.17;0.85;;;11.80;56.80;;;7.36;69.33;94768.22;4952380;28;20149;-52
2023/01/15 00:27:44;;;;;;;1.35;1.00;;;11.80;56.60;;;7.39;71.08;94760.53;4952731;28;20464;-50
2023/01/15 00:30:14;;;;;;;1.77;0.93;;;11.80;56.60;;;7.41;70.47;94761.06;4951305;28;20038;-53
2023/01/15 00:32:43;;;;;;;2.58;1.00;;;11.80;56.50;;;7.44;72.03;94748.38;4950409;28;20027;-51
2023/01/15 00:35:22;;;;;;;1.65;1.02;;;11.80;56.60;;;7.41;70.02;94747.81;4951623;28;20117;-54
2023/01/15 00:37:49;;;;;;;2.10;1.20;;;11.90;56.40;;;7.39;70.40;94747.28;4932480;28;20378;-51
2023/01/15 00:40:19;;;;;;;1.85;1.00;;;11.90;56.40;;;7.44;69.71;94749.16;4950350;28;20109;-52
2023/01/15 00:42:45;;;;;;;1.75;0.95;;;11.90;56.30;;;7.48;69.92;94746.78;4951175;28;20445;-54
2023/01/15 00:45:17;;;;;;;1.58;1.00;;;11.90;56.30;;;7.50;67.97;94749.97;4951741;28;20031;-54
2023/01/15 00:47:46;;;;;;;1.45;0.93;;;11.90;56.10;;;7.55;67.39;94742.81;4951210;28;20034;-54
2023/01/15 00:50:16;;;;;;;1.83;0.93;;;11.90;55.90;;;7.59;67.63;94735.91;4949422;28;20406;-56
2023/01/15 00:52:42;;;;;;;1.75;0.90;;;12.00;55.80;;;7.61;68.75;94739.06;4943732;28;20490;-53
2023/01/15 00:55:09;;;;;;;2.35;1.08;;;12.00;55.80;;;7.63;69.26;94728.22;4951072;28;20029;-51
2023/01/15 00:57:37;;;;;;;2.08;1.13;;;12.00;55.80;;;7.65;67.90;94736.72;4949651;28;20031;-53
2023/01/15 01:00:05;;;;;;;3.17;1.15;;;12.00;55.70;;;7.67;69.01;94734.56;4947302;28;20495;-50
2023/01/15 01:02:34;;;;;;;3.28;0.98;;;12.00;55.70;;;7.63;69.00;94734.31;4950699;28;20440;-51
2023/01/15 01:04:59;;;;;;;2.55;1.10;;;12.00;55.70;;;7.60;68.54;94742.78;4951710;28;20061;-51
2023/01/15 01:07:31;;;;;;;1.17;0.88;;;12.00;55.70;;;7.59;69.85;94738.56;4948670;28;20482;-51
2023/01/15 01:09:57;;;;;;;2.50;0.98;;;12.00;55.70;;;7.58;66.96;94722.91;4950128;28;20038;-53
2023/01/15 01:12:29;;;;;;;1.63;1.00;;;12.10;55.60;;;7.59;67.69;94716.56;4951853;28;20033;-51
2023/01/15 01:14:57;;;;;;;2.53;1.00;;;12.10;55.50;;;7.60;66.00;94718.94;4928769;28;20457;-51
2023/01/15 01:17:23;;;;;;;1.40;0.77;;;12.10;55.30;;;7.69;66.85;94732.44;4951416;28;20622;-53
2023/01/15 01:19:57;;;;;;;2.15;1.00;;;12.10;55.10;;;7.74;65.19;94723.69;4949745;28;20037;-51
2023/01/15 01:22:26;;;;;;;1.58;1.00;;;12.10;55.10;;;7.78;67.39;94701.69;4946800;28;20528;-51
2023/01/15 01:24:52;;;;;;;3.13;0.95;;;12.10;55.00;;;7.80;67.75;94704.88;4943548;28;20363;-52
2023/01/15 01:27:29;;;;;;;1.60;0.82;;;12.20;55.10;;;7.83;66.86;94711.47;4950999;28;20029;-54
2023/01/15 01:29:55;;;;;;;0.70;0.60;;;12.20;55.00;;;7.86;66.33;94709.09;4950863;28;20030;-55
2023/01/15 01:32:21;;;;;;;1.40;0.60;;;12.20;54.90;;;7.88;66.82;94722.09;4941329;28;20030;-50
2023/01/15 01:34:46;;;;;;;2.65;0.82;;;12.20;54.90;;;7.89;66.30;94719.16;4951280;28;20405;-56
2023/01/15 01:37:29;;;;;;;1.38;0.68;;;12.20;54.80;;;7.89;67.86;94716.50;4920389;28;20033;-53
2023/01/15 01:39:55;;;;;;;1.20;0.83;;;12.30;54.80;;;7.88;66.18;94706.97;4949925;28;20030;-56
2023/01/15 01:42:27;;;;;;;0.90;0.65;;;12.20;54.80;;;7.93;65.99;94700.88;4939980;28;20026;-52
2023/01/15 01:45:28;;;;;;;1.27;0.60;;;12.20;54.60;;;7.99;66.36;94697.16;4925178;29;20122;-55
2023/01/15 01:48:03;;;;;;;1.95;0.65;;;12.30;54.60;;;8.06;65.64;94686.25;4914302;28;20501;-56
2023/01/15 01:50:36;;;;;;;1.15;0.70;;;12.30;54.60;;;8.10;65.86;94685.44;4938924;28;20057;-51
2023/01/15 01:53:17;;;;;;;0.73;0.73;;;12.40;54.50;;;8.15;66.33;94692.59;4949300;28;20033;-54
2023/01/15 01:55:43;;;;;;;1.17;0.60;;;12.40;54.40;;;8.14;66.00;94695.50;4949427;28;20113;-50
2023/01/15 01:58:13;;;;;;;0.85;0.85;;;12.40;54.30;;;8.15;65.50;94699.72;4940808;28;20478;-51
2023/01/15 02:00:49;;;;;;;2.58;0.85;;;12.50;54.80;;;8.19;65.38;94671.63;4929688;29;20031;-51
2023/01/15 02:03:29;;;;;;;1.00;0.60;;;12.50;54.10;;;8.20;65.98;94684.59;4926122;28;20226;-51
2023/01/15 02:06:05;;;;;;;1.05;0.60;;;12.60;54.10;;;8.23;66.00;94680.63;4950106;28;20026;-51
2023/01/15 02:08:33;;;;;;;1.48;0.80;;;12.60;54.10;;;8.22;66.97;94666.56;4948765;28;20100;-52
2023/01/15 02:11:03;;;;;;;1.17;0.73;;;12.60;54.10;;;8.19;67.27;94676.94;4949894;29;20030;-51
2023/01/15 02:14:09;;;;;;;0.95;0.68;;;12.60;54.10;;;8.20;67.13;94689.13;4933176;29;20490;-51
2023/01/15 02:18:00;;;;;;;1.27;0.70;;;12.60;54.00;;;8.18;67.36;94684.09;4933629;29;20054;-52
2023/01/15 02:20:44;;;;;;;0.47;0.43;;;12.70;54.10;;;8.19;68.02;94684.88;4903193;29;20094;-52
2023/01/15 02:24:13;;;;;;;1.00;0.57;;;12.60;54.20;;;8.18;68.41;94656.75;4942965;29;20102;-55
2023/01/15 02:27:23;;;;;;;1.13;0.70;;;12.60;54.10;;;8.17;68.34;94657.81;4928490;29;20047;-56
2023/01/15 02:30:28;;;;;;;1.45;0.90;;;12.60;54.20;;;8.17;69.24;94629.44;4939665;29;20033;-52
2023/01/15 02:33:48;;;;;;;1.17;0.75;;;12.60;54.30;;;8.14;69.20;94653.84;4951432;28;20031;-53
2023/01/15 02:36:22;;;;;;;1.38;0.70;;;12.60;54.30;;;8.11;71.30;94655.19;4919610;28;20176;-53
2023/01/15 02:38:55;;;;;;;0.70;0.60;;;12.60;54.50;;;8.08;71.75;94671.66;4952488;28;20092;-52
2023/01/15 02:41:32;;;;;;;0.85;0.65;;;12.60;54.70;;;8.01;72.33;94639.31;4953517;28;20030;-53
2023/01/15 02:44:07;;;;;;;1.08;0.60;;;12.60;54.80;;;7.96;73.10;94642.00;4949399;28;20548;-51
2023/01/15 02:46:39;;;;;;;0.77;0.60;;;12.50;55.00;;;7.89;73.90;94628.22;4934134;29;20023;-54
2023/01/15 02:49:17;;;;;;;2.17;0.77;;;12.50;55.10;;;7.83;74.44;94631.94;4951684;28;20192;-52
2023/01/15 02:52:05;;;;;;;0.70;0.63;;;12.50;55.30;;;7.84;75.12;94644.94;4950444;28;20039;-51
2023/01/15 02:54:45;;;;;;;0.70;0.55;;;12.40;55.40;;;7.81;76.83;94652.66;4933806;28;20402;-53
2023/01/15 02:57:15;;;;;;;1.38;0.73;;;12.40;55.70;;;7.78;75.99;94638.06;4937075;28;20179;-51
2023/01/15 02:59:49;;;;;;;1.00;0.70;;;12.30;55.80;;;7.78;76.84;94650.53;4935061;28;20220;-52
2023/01/15 03:02:34;;;;;;;0.90;0.47;;;12.30;55.90;;;7.77;75.57;94639.13;4936395;28;20117;-51
2023/01/15 03:05:16;;;;;;;1.17;0.60;;;12.30;56.00;;;7.74;76.28;94647.63;4952359;28;20461;-51
2023/01/15 03:08:08;;;;;;;1.63;0.68;;;12.20;56.10;;;7.72;76.57;94639.13;4939796;28;20057;-54
2023/01/15 03:11:04;;;;;;;2.17;0.50;;;12.20;56.20;;;7.68;76.47;94632.78;4935519;28;20145;-51
2023/01/15 03:14:29;;;;;;;1.05;0.60;;;12.20;56.30;;;7.68;76.34;94611.59;4937179;28;20026;-50
2023/01/15 03:17:21;;;;;;;1.02;0.60;;;12.20;56.30;;;7.70;77.49;94613.97;4942492;28;20518;-52
2023/01/15 03:19:57;;;;;;;1.23;0.60;;;12.20;56.50;;;7.64;76.71;94613.16;4925292;28;20034;-57
2023/01/15 03:22:38;;;;;;;1.40;0.57;;;12.10;56.50;;;7.50;79.11;94594.41;4935188;28;20483;-54
2023/01/15 03:25:28;;;;;;;0.88;0.60;;;12.20;56.80;;;7.58;79.61;94598.34;4949367;28;20063;-51
2023/01/15 03:28:02;;;;;;;1.52;0.60;;;12.10;57.00;;;7.59;80.39;94600.75;4937458;28;20084;-51
2023/01/15 03:30:28;;;;;;;0.93;0.60;;;12.10;57.10;;;7.57;80.42;94592.25;4950399;28;20277;-51
2023/01/15 03:32:55;;;;;;;1.33;0.60;;;12.10;57.20;;;7.57;80.17;94586.94;4922578;28;20023;-52
2023/01/15 03:35:57;;;;;;;0.95;0.70;;;12.10;57.30;;;7.59;80.34;94586.69;4952889;28;20034;-51
2023/01/15 03:38:50;;;;;;;2.15;0.70;;;12.20;57.60;;;7.59;81.29;94584.03;4913791;28;20089;-52
2023/01/15 03:42:17;;;;;;;2.17;0.80;;;12.10;57.70;;;7.59;81.31;94579.53;4935628;28;20043;-50
2023/01/15 03:45:07;;;;;;;0.93;0.60;;;12.20;57.80;;;7.61;81.64;94579.25;4950307;28;20046;-52
2023/01/15 03:48:18;;;;;;;0.82;0.50;;;12.10;58.00;;;7.63;81.61;94580.56;4945051;28;20393;-51
2023/01/15 03:51:22;;;;;;;0.82;0.52;;;12.10;58.00;;;7.61;81.99;94579.25;4956518;28;20042;-50
2023/01/15 03:53:56;;;;;;;1.17;0.50;;;12.20;58.10;;;7.62;84.27;94591.47;4943607;28;20449;-51
2023/01/15 03:57:19;;;;;;;0.80;0.70;;;12.10;58.30;;;7.56;85.05;94595.97;4951369;28;20030;-51
2023/01/15 04:00:37;;;;;;;1.10;0.50;;;12.10;58.50;;;7.53;85.72;94583.25;4903557;28;20138;-50
2023/01/15 04:03:10;;;;;;;2.88;0.77;;;12.00;58.70;;;7.48;86.97;94593.06;4945185;28;20085;-54
2023/01/15 04:05:45;;;;;;;0.85;0.60;;;11.90;59.00;;;7.41;87.64;94601.31;4941131;28;20776;-56
2023/01/15 04:08:14;;;;;;;1.70;0.80;;;11.90;59.40;;;7.40;88.61;94592.56;4929893;29;20126;-51
2023/01/15 04:10:52;;;;;;;0.63;0.60;;;11.80;59.60;;;7.33;88.82;94596.53;4928617;28;20033;-52
2023/01/15 04:13:30;;;;;;;1.33;0.60;;;11.80;60.00;;;7.34;90.89;94590.19;4950630;28;20027;-50
2023/01/15 04:15:59;;;;;;;2.17;0.60;;;11.70;60.40;;;7.25;89.76;94582.00;4950466;28;20522;-50
2023/01/15 04:18:25;;;;;;;1.25;0.50;;;11.70;60.80;;;7.26;91.64;94588.09;4950960;28;20030;-50
2023/01/15 04:20:53;;;;;;;1.88;0.70;;;11.60;60.90;;;7.24;90.97;94564.53;4943378;28;20033;-53
2023/01/15 04:23:22;;;;;;;1.38;0.68;;;11.60;61.50;;;7.22;91.45;94577.22;4949946;28;20069;-50
2023/01/15 04:25:48;;;;;;;0.68;0.60;;;11.50;61.80;;;7.20;91.56;94579.34;4948571;28;20033;-53
2023/01/15 04:28:14;;;;;;;0.80;0.60;;;11.50;62.00;;;7.20;91.99;94574.06;4934155;28;20061;-50
2023/01/15 04:30:42;;;;;;;1.63;0.60;;;11.50;62.00;;;7.22;91.85;94579.09;4934636;28;20046;-50
2023/01/15 04:33:08;;;;;;;1.50;0.80;;;11.50;62.50;;;7.24;92.60;94574.31;4949892;28;20038;-50
2023/01/15 04:35:45;;;;;;;1.83;0.65;;;11.50;62.60;;;7.20;91.84;94566.09;4952113;28;20371;-52
2023/01/15 04:38:18;;;;;;;2.28;0.88;;;11.50;62.90;;;7.21;90.94;94553.66;4949829;28;20125;-51
2023/01/15 04:46:22;;;;;;;0.82;0.47;;;11.50;63.00;;;7.30;90.56;94546.75;4940216;28;20604;-57
2023/01/15 04:48:48;;;;;;;1.38;0.70;;;11.50;63.00;;;7.27;90.96;94558.69;4949226;28;20038;-56
2023/01/15 04:51:14;;;;;;;0.80;0.50;;;11.60;63.10;;;7.32;90.28;94558.66;4937377;28;20039;-52
2023/01/15 04:53:40;;;;;;;3.70;0.60;;;11.60;63.10;;;7.34;90.80;94561.06;4951097;28;20037;-50
2023/01/15 04:56:09;;;;;;;1.63;0.60;;;11.60;63.10;;;7.33;90.49;94551.50;4948395;28;20038;-50
2023/01/15 04:58:38;;;;;;;1.13;0.65;;;11.60;63.10;;;7.38;89.87;94559.44;4951684;28;20037;-52
2023/01/15 05:01:18;;;;;;;0.50;0.50;;;11.70;63.00;;;7.39;90.36;94532.69;4948900;28;20034;-52
2023/01/15 05:03:50;;;;;;;1.05;0.55;;;11.70;63.20;;;7.39;89.75;94529.25;4940801;28;20482;-53
2023/01/15 05:06:19;;;;;;;1.95;0.80;;;11.70;63.00;;;7.46;90.67;94534.25;4948964;28;20026;-51
2023/01/15 05:08:52;;;;;;;2.58;0.70;;;11.70;63.00;;;7.47;90.09;94534.00;4930135;29;20439;-54
2023/01/15 05:11:21;;;;;;;0.80;0.60;;;11.80;63.10;;;7.49;90.11;94531.06;4947078;28;20355;-54
2023/01/15 05:13:46;;;;;;;1.52;0.85;;;11.80;63.10;;;7.53;89.27;94529.47;4949101;28;20034;-56
2023/01/15 05:16:22;;;;;;;1.08;0.70;;;11.80;63.20;;;7.63;87.43;94532.88;4955770;28;20470;-52
2023/01/15 05:18:50;;;;;;;0.45;0.45;;;11.90;63.20;;;7.76;87.72;94533.34;4950630;28;20485;-56
2023/01/15 05:21:30;;;;;;;1.05;0.50;;;11.90;63.20;;;7.82;87.52;94532.25;4948782;28;20053;-50
2023/01/15 05:24:01;;;;;;;0.88;0.50;;;12.00;63.20;;;7.87;86.59;94524.28;4948563;28;20869;-58
2023/01/15 05:26:32;;;;;;;1.00;0.50;;;12.00;63.10;;;7.91;86.79;94524.53;4923432;28;20440;-53
2023/01/15 05:29:03;;;;;;;0.70;0.60;;;12.10;63.80;;;7.95;86.13;94514.97;4947597;28;20086;-53
2023/01/15 05:31:32;;;;;;;1.00;0.60;;;12.10;62.90;;;8.00;86.71;94521.03;4949827;28;20525;-52
2023/01/15 05:34:04;;;;;;;0.95;0.55;;;12.20;62.80;;;7.98;86.08;94528.47;4933102;28;20045;-52
2023/01/15 05:36:31;;;;;;;0.60;0.60;;;12.20;62.60;;;7.92;86.38;94526.91;4951283;28;20114;-60
2023/01/15 05:39:00;;;;;;;0.50;0.50;;;12.20;62.40;;;7.89;86.01;94522.16;4945845;28;20387;-54
2023/01/15 05:44:23;;;;;;;1.35;0.70;;;12.30;62.20;;;7.81;84.75;94523.53;4947897;28;20409;-53
2023/01/15 05:47:06;;;;;;;1.40;0.90;;;12.20;62.00;;;7.75;85.45;94529.91;4949718;28;20027;-55
2023/01/15 05:49:33;;;;;;;4.28;1.05;;;12.20;61.80;;;7.70;84.94;94518.53;4929828;28;20097;-54
2023/01/15 05:52:03;;;;;;;1.77;0.80;;;12.20;62.60;;;7.64;85.48;94518.53;4942378;28;20058;-56
2023/01/15 05:54:35;;;;;;;0.95;0.65;;;12.20;61.70;;;7.63;86.05;94518.81;4939767;28;20030;-57
2023/01/15 05:57:04;;;;;;;0.85;0.77;;;12.20;61.80;;;7.68;86.79;94518.81;4949629;28;20033;-52
2023/01/15 05:59:32;;;;;;;4.03;0.60;;;12.10;61.90;;;7.72;86.78;94522.50;4948440;28;20031;-53
2023/01/15 06:02:01;;;;;;;4.35;0.88;;;12.10;61.90;;;7.71;86.96;94512.97;4947488;28;20022;-51
2023/01/15 06:04:27;;;;;;;1.15;0.63;;;12.20;62.00;;;7.72;86.51;94511.09;4949741;28;20057;-53
2023/01/15 06:06:55;;;;;;;1.35;0.60;;;12.10;62.00;;;7.83;86.33;94512.63;4947586;28;20030;-56
2023/01/15 06:09:26;;;;;;;0.60;0.40;;;12.10;62.10;;;8.04;85.29;94505.38;4931458;28;20119;-53
2023/01/15 06:11:54;;;;;;;0.52;0.35;;;12.20;62.40;;;8.24;84.86;94507.91;4949523;29;20026;-53
2023/01/15 06:14:19;;;;;;;0.60;0.50;;;12.30;63.30;;;8.47;83.60;94497.69;4949746;29;20034;-51
2023/01/15 06:16:49;;;;;;;0.30;0.30;;;12.40;62.50;;;8.60;83.41;94507.66;4932676;29;20038;-56
2023/01/15 06:19:15;;;;;;;0.70;0.50;;;12.50;62.60;;;8.77;82.09;94504.59;4949302;29;20041;-53
2023/01/15 06:21:41;;;;;;;0.40;0.40;;;12.60;62.30;;;8.86;81.55;94510.91;4949151;29;20023;-51
2023/01/15 06:24:08;;;;;;;0.40;0.40;;;12.70;62.30;;;8.93;81.66;94508.72;4949222;29;20508;-51
2023/01/15 06:26:34;;;;;;;1.13;0.52;;;12.80;62.00;;;8.96;81.67;94510.81;4948431;29;20433;-57
2023/01/15 06:29:00;;;;;;;0.40;0.40;;;12.90;61.80;;;9.00;81.93;94513.72;4945182;29;20031;-51
2023/01/15 06:31:29;;;;;;;1.05;0.30;;;13.00;61.70;;;9.01;81.62;94502.78;4941634;29;20022;-51
2023/01/15 06:33:55;;;;;;;0.70;0.40;;;13.10;61.50;;;9.08;81.55;94493.69;4948114;29;20027;-51
2023/01/15 06:36:24;;;;;;;0.30;0.30;;;13.20;61.40;;;9.13;82.63;94491.78;4940170;29;20054;-50
2023/01/15 06:38:51;;;;;;;0.35;0.35;;;13.20;61.30;;;9.17;81.45;94486.69;4913163;29;20481;-54
2023/01/15 06:47:21;;;;;;;0.30;0.30;;;13.40;61.10;;;9.27;80.51;94479.44;4948634;29;20034;-51
2023/01/15 06:49:57;;;;;;;1.63;0.47;;;13.40;60.90;;;9.29;80.11;94470.38;4936753;29;20030;-54
2023/01/15 06:52:27;;;;;;;0.80;0.47;;;13.50;60.80;;;9.27;80.13;94470.63;4948600;29;20027;-52
2023/01/15 06:54:54;;;;;;;0.55;0.40;;;13.50;60.60;;;9.24;80.40;94468.53;4948082;29;20172;-51
2023/01/15 06:57:20;;;;;;;1.73;0.47;;;13.50;60.50;;;9.17;80.68;94465.44;4948434;28;20550;-52
2023/01/15 06:59:48;;;;;;;0.60;0.50;;;13.50;60.30;;;9.16;81.14;94453.25;4948482;29;20030;-56
2023/01/15 07:02:20;;;;;;;1.20;0.47;;;13.50;60.20;;;9.07;81.50;94460.25;4930779;29;20077;-53
2023/01/15 07:04:47;;;;;;;0.50;0.50;;;13.50;60.20;;;9.00;82.57;94461.38;4949870;29;20023;-51
2023/01/15 07:07:20;;;;;;;1.27;0.60;;;13.50;60.20;;;8.83;83.01;94478.81;4947362;29;20023;-51
2023/01/15 07:09:50;;;;;;;1.63;0.63;;;13.40;60.10;;;8.77;83.03;94459.47;4901661;29;20030;-53
2023/01/15 07:12:17;;;;;;;1.10;0.63;;;13.40;60.10;;;8.55;83.42;94438.69;4948595;29;20023;-56
2023/01/15 07:14:47;;;;;;;1.52;0.70;;;13.30;60.00;;;8.53;84.61;94451.47;4948028;29;20027;-56
2023/01/15 07:17:13;;;;;;;1.95;0.77;;;13.20;60.10;;;8.45;85.05;94449.41;4949504;28;20049;-55
2023/01/15 07:19:40;;;;;;;0.95;0.68;;;13.20;60.20;;;8.44;85.67;94458.44;4915730;28;20026;-53
2023/01/15 07:22:08;;;;;;;1.23;0.60;;;13.10;60.30;;;8.33;85.56;94458.47;4953533;28;20029;-53
2023/01/15 07:24:34;;;;;;;0.40;0.40;;;13.00;60.30;;;8.33;86.11;94450.50;4951684;28;20430;-51
2023/01/15 07:27:00;;;;;;;0.50;0.50;;;13.00;60.50;;;8.32;86.11;94448.16;4927169;28;20027;-52
2023/01/15 07:29:26;;;;;;;0.50;0.50;;;12.90;60.60;;;8.31;86.01;94441.25;4902352;28;20091;-53
2023/01/15 07:31:52;;;;;;;0.65;0.50;;;12.90;60.80;;;8.31;86.40;94441.25;4945111;28;20517;-51
2023/01/15 07:34:19;;;;;;;0.63;0.60;;;12.90;60.90;;;8.32;86.41;94448.16;4921267;28;128217;-55
2023/01/15 07:36:45;;;;;;;0.77;0.45;;;12.90;61.00;;;8.27;86.57;94448.19;4946044;28;20027;-52
2023/01/15 07:39:14;;;;;;;1.63;0.50;;;12.90;61.10;;;8.21;87.24;94450.09;4922437;28;20089;-53
2023/01/15 07:50:21;;;;;;;1.15;0.70;;;12.80;61.60;;;8.25;87.36;94423.81;4949681;28;20070;-57
2023/01/15 07:52:47;;;;;;;1.23;0.60;;;12.80;61.60;;;8.24;87.33;94424.84;4951778;28;20039;-56
2023/01/15 07:55:16;;;;;;;1.50;0.70;;;12.80;61.60;;;8.22;87.33;94425.16;4952461;28;20023;-51
2023/01/15 07:57:43;;;;;;;2.53;0.60;;;12.80;61.60;;;8.26;87.45;94428.81;4952871;28;20038;-51
2023/01/15 08:00:21;;;;;;;0.85;0.60;;;12.80;61.70;;;8.30;87.39;94439.66;4947797;28;20027;-53
2023/01/15 08:02:49;;;;;;;0.77;0.40;;;12.90;61.80;;;8.29;87.28;94440.75;4933364;28;20042;-57
2023/01/15 08:05:17;;;;;;;1.65;0.60;;;12.90;62.50;;;8.29;87.19;94441.53;4949991;28;20038;-50
2023/01/15 08:07:44;;;;;;;0.60;0.50;;;12.90;61.80;;;8.31;86.99;94449.22;4949125;28;20397;-53
2023/01/15 08:10:12;;;;;;;0.82;0.50;;;12.90;61.70;;;8.31;87.04;94459.84;4952723;28;20055;-52
2023/01/15 08:15:28;;;;;;;0.57;0.50;;;12.90;61.90;;;8.40;87.06;94495.34;4952245;28;20122;-51
2023/01/15 08:17:54;;;;;;;0.57;0.50;;;12.90;61.90;;;8.40;87.25;94498.00;4952031;28;20468;-56
2023/01/15 08:20:24;;;;;;;1.30;0.52;;;12.90;62.00;;;8.41;87.54;94507.56;4914221;29;20025;-53
2023/01/15 08:22:52;;;;;;;1.30;0.47;;;12.90;61.90;;;8.41;87.42;94520.81;4934491;28;20121;-55
2023/01/15 08:25:23;;;;;;;0.70;0.50;;;13.00;62.00;;;8.46;86.86;94517.31;4946646;28;20048;-54
2023/01/15 08:27:51;;;;;;;1.10;0.55;;;13.00;62.00;;;8.51;86.86;94511.97;4944549;28;20031;-51
2023/01/15 08:30:23;;;;;;;0.50;0.50;;;13.00;62.00;;;8.55;86.52;94521.78;4949504;28;20077;-57
2023/01/15 08:32:59;;;;;;;0.67;0.50;;;13.10;62.10;;;8.57;86.61;94548.81;4939849;28;20128;-55
2023/01/15 08:35:25;;;;;;;0.75;0.40;;;13.10;62.00;;;8.29;86.77;94546.88;4946834;28;20437;-51
2023/01/15 08:37:51;;;;;;;1.00;0.40;;;13.10;61.80;;;7.88;88.08;94555.81;4921830;28;20023;-53
2023/01/15 08:40:23;;;;;;;0.30;0.30;;;13.00;61.30;;;7.52;88.49;94571.09;4931122;29;20062;-57
2023/01/15 08:42:49;;;;;;;0.20;0.20;;;13.00;61.00;;;7.21;88.54;94583.59;4933717;28;20030;-54
2023/01/15 08:45:15;;;;;;;0.20;0.20;;;12.80;60.60;;;6.97;89.20;94595.81;4948398;28;20383;-58
2023/01/15 08:47:44;;;;;;;0.20;0.20;;;12.60;60.30;;;6.79;90.60;94595.25;4950955;28;20117;-55
2023/01/15 08:50:11;;;;;;;0.20;0.20;;;12.50;60.30;;;6.62;90.63;94605.31;4937860;28;20039;-54
2023/01/15 08:52:38;;;;;;;0.30;0.30;;;12.30;60.40;;;6.29;91.65;94611.84;4950394;28;20040;-56
2023/01/15 08:55:05;;;;;;;0.25;0.25;;;12.10;60.30;;;6.18;93.38;94646.22;4934121;28;20109;-53
2023/01/15 08:57:34;;;;;;;0.28;0.28;;;11.90;60.40;;;6.01;93.27;94622.59;4931958;28;20217;-55
2023/01/15 09:00:08;;;;;;;0.98;0.20;;;11.70;60.60;;;5.75;94.79;94642.81;4950783;28;20026;-54
2023/01/15 09:02:34;;;;;;;0.20;0.20;;;11.40;60.70;;;5.62;95.17;94629.28;4946696;28;20525;-51
2023/01/15 09:05:03;;;;;;;0.30;0.30;;;11.20;61.10;;;5.49;96.18;94638.47;4951057;28;20121;-56
2023/01/15 09:07:29;;;;;;;0.40;0.20;;;11.00;61.50;;;5.47;97.08;94659.03;4928783;28;20089;-51
2023/01/15 09:09:54;;;;;;;0.20;0.20;;;10.80;61.80;;;5.30;97.38;94657.34;4931052;28;20027;-53
2023/01/15 09:12:25;;;;;;;0.20;0.20;;;10.70;62.20;;;5.23;98.62;94672.63;4950003;28;20046;-56
2023/01/15 09:14:54;;;;;;;0.25;0.25;;;10.60;62.60;;;5.14;98.02;94671.50;4950249;28;20019;-53
2023/01/15 09:17:20;;;;;;;0.25;0.20;;;10.40;62.90;;;5.08;99.55;94683.06;4949766;28;20032;-54
2023/01/15 09:19:46;;;;;;;0.20;0.20;;;10.30;63.00;;;5.01;99.11;94695.66;4928195;28;20113;-53
2023/01/15 09:22:15;;;;;;;0.35;0.25;;;10.20;63.40;;;4.81;99.77;94712.91;4936829;28;20110;-54
2023/01/15 09:24:41;;;;;;;0.20;0.20;;;10.10;63.70;;;4.72;99.06;94703.84;4945709;28;20053;-53
2023/01/15 09:27:15;;;;;;;0.35;0.20;;;9.90;63.70;;;4.63;99.70;94706.13;4941914;28;20457;-55
2023/01/15 09:29:41;;;;;;;0.20;0.20;;;9.80;63.90;;;4.63;99.94;94713.22;4947993;28;20023;-50
2023/01/15 09:32:09;;;;;;;0.20;0.20;;;9.80;64.00;;;4.47;100.00;94724.66;4943182;28;20404;-51
2023/01/15 09:34:35;;;;;;;0.30;0.25;;;9.70;64.10;;;4.44;100.00;94725.16;4946124;28;20050;-56
2023/01/15 09:37:00;;;;;;;0.20;0.20;;;9.60;64.30;;;4.50;100.00;94729.44;4944978;28;20169;-55
2023/01/15 09:39:26;;;;;;;0.20;0.20;;;9.60;64.40;;;4.40;100.00;94720.38;4929177;28;20549;-50
2023/01/15 09:42:13;;;;;;;0.20;0.20;;;9.50;64.50;;;4.29;100.00;94729.19;4914852;28;20490;-51
2023/01/15 09:45:36;;;;;;;0.47;0.22;;;9.50;64.80;;;4.29;100.00;94749.50;4944293;28;20027;-52
2023/01/15 09:48:38;;;;;;;0.22;0.22;;;9.40;64.70;;;4.24;100.00;94749.47;4887463;29;20038;-50
2023/01/15 09:51:53;;;;;;;0.28;0.28;;;9.40;65.00;;;4.13;100.00;94756.41;4903533;28;21105;-53
2023/01/15 09:55:16;;;;;;;0.20;0.20;;;9.40;65.00;;;4.18;100.00;94767.03;4928849;29;20117;-52
2023/01/15 09:57:48;;;;;;;0.38;0.25;;;9.40;65.10;;;4.06;100.00;94768.97;4944390;28;20435;-52
2023/01/15 10:00:32;;;;;;;0.45;0.40;;;9.30;65.00;;;4.05;100.00;94775.31;4925079;28;20047;-52
2023/01/15 10:03:24;;;;;;;0.30;0.30;;;9.20;65.10;;;3.90;100.00;94770.63;4922900;29;20019;-50
2023/01/15 10:06:06;;;;;;;2.40;0.30;;;9.20;65.10;;;3.83;100.00;94799.78;4921423;29;20027;-55
2023/01/15 10:08:40;;;;;;;0.20;0.20;;;9.10;65.20;;;3.85;100.00;94802.94;4929054;28;20035;-51
2023/01/15 10:15:00;;;;;;;0.20;0.20;;;8.90;65.40;;;3.61;100.00;94807.59;4921260;29;20056;-50
2023/01/15 10:17:57;;;;;;;0.20;0.20;;;8.80;65.50;;;3.53;100.00;94823.00;4928385;29;20055;-51
2023/01/15 10:21:17;;;;;;;0.55;0.20;;;8.70;65.60;;;3.40;100.00;94818.84;4885985;28;20197;-51
2023/01/15 10:24:05;;;;;;;0.57;0.40;;;8.60;65.80;;;3.38;100.00;94824.31;4867172;29;20087;-52
2023/01/15 10:26:56;;;;;;;0.20;0.20;;;8.50;66.00;;;3.37;100.00;94824.56;4922577;29;20039;-50
2023/01/15 10:30:05;;;;;;;0.68;0.30;;;8.50;66.20;;;3.31;100.00;94846.56;4920564;29;20037;-52
2023/01/15 10:32:47;;;;;;;0.45;0.40;;;8.40;66.20;;;3.27;100.00;94833.09;4925656;29;20039;-50
2023/01/15 10:35:55;;;;;;;0.38;0.38;;;8.40;66.60;;;3.25;100.00;94837.78;4928632;29;20521;-54
2023/01/15 10:39:03;;;;;;;2.72;0.30;;;8.30;66.60;;;3.32;100.00;94856.88;4924054;29;20530;-50
2023/01/15 10:42:05;;;;;;;0.40;0.40;;;8.30;66.70;;;3.23;100.00;94868.84;4921672;29;20054;-53
2023/01/15 10:45:21;;;;;;;0.20;0.20;;;8.30;66.80;;;3.21;100.00;94882.22;4920234;29;20203;-53
2023/01/15 10:48:18;;;;;;;0.30;0.30;;;8.30;67.00;;;3.19;100.00;94900.06;4927405;29;20071;-55
2023/01/15 10:50:46;;;;;;;0.20;0.20;;;8.20;67.00;;;3.32;100.00;94917.44;4930933;28;20503;-51
2023/01/15 10:53:48;;;;;;;0.75;0.35;;;8.20;67.10;;;3.34;100.00;94922.44;4931088;28;20320;-51
2023/01/15 10:56:43;;;;;;;1.52;0.50;;;8.20;67.30;;;3.42;100.00;94929.97;4937131;28;20029;-55
2023/01/15 10:59:23;;;;;;;0.95;0.40;;;8.20;67.40;;;3.27;100.00;94938.38;4943604;28;20123;-51
2023/01/15 11:01:58;;;;;;;0.20;0.20;;;8.20;67.50;;;3.11;100.00;94949.66;4922793;28;20393;-50
2023/01/15 11:04:34;;;;;;;0.30;0.30;;;8.20;67.60;;;3.08;100.00;94969.34;4952155;28;20027;-53
2023/01/15 11:07:04;;;;;;;0.25;0.25;;;8.10;67.70;;;3.06;100.00;94978.50;4948185;28;20027;-53
2023/01/15 11:09:32;;;;;;;2.00;0.40;;;8.10;67.70;;;3.07;100.00;94977.44;4945760;28;20030;-51
2023/01/15 11:20:48;;;;;;;0.88;0.30;;;7.80;67.90;;;2.80;100.00;95019.25;4946158;28;20058;-55
2023/01/15 11:23:19;;;;;;;0.30;0.30;;;7.80;68.00;;;2.71;100.00;95016.16;4949583;28;20018;-51
2023/01/15 11:25:56;;;;;;;0.32;0.30;;;7.70;68.00;;;2.68;100.00;95029.75;4951557;28;20042;-51
2023/01/15 11:28:42;;;;;;;1.45;0.30;;;7.70;68.20;;;2.64;100.00;95037.31;4944959;28;20018;-55
2023/01/15 11:31:17;;;;;;;0.43;0.25;;;7.60;68.10;;;2.60;100.00;95051.13;4943411;28;20481;-54
2023/01/15 11:33:59;;;;;;;0.88;0.30;;;7.50;68.20;;;2.44;100.00;95065.75;4956472;28;20077;-52
2023/01/15 11:36:31;;;;;;;0.30;0.30;;;7.50;68.20;;;2.36;100.00;95064.25;4950929;28;20029;-50
2023/01/15 11:39:02;;;;;;;0.43;0.30;;;7.40;68.10;;;2.24;100.00;95069.47;4936068;28;20049;-52
2023/01/15 11:53:02;;;;;;;0.38;0.30;;;7.10;68.40;;;2.23;100.00;95104.66;4951018;28;20040;-50
2023/01/15 11:55:29;;;;;;;0.57;0.43;;;7.10;68.50;;;2.20;100.00;95096.44;4932884;28;20022;-57